createdAt,value
2023-02-15T00:01:30.401Z,11.77
2023-02-15T00:04:00.164Z,11.43
2023-02-15T00:06:29.489Z,11.75
2023-02-15T00:08:59.532Z,12.70
2023-02-15T00:11:44.067Z,11.50
2023-02-15T00:14:15.931Z,12.18
2023-02-15T00:16:46.663Z,13.18
2023-02-15T00:21:47.430Z,12.23
2023-02-15T00:24:19.272Z,12.80
2023-02-15T00:26:51.633Z,11.57
2023-02-15T00:29:22.195Z,12.75
2023-02-15T00:31:52.308Z,11.25
2023-02-15T00:34:23.948Z,12.80
2023-02-15T00:36:53.685Z,12.55
2023-02-15T00:39:23.331Z,13.80
2023-02-15T00:41:54.465Z,15.13
2023-02-15T00:44:24.162Z,14.15
2023-02-15T00:46:53.449Z,15.90
2023-02-15T00:49:23.044Z,14.48
2023-02-15T00:51:52.416Z,16.13
2023-02-15T00:54:22.347Z,16.10
2023-02-15T00:56:53.527Z,15.23
2023-02-15T00:59:23.279Z,15.95
2023-02-15T01:01:52.526Z,16.27
2023-02-15T01:04:22.251Z,21.33
2023-02-15T01:06:52.084Z,15.50
2023-02-15T01:09:21.901Z,16.83
2023-02-15T01:11:51.206Z,17.65
2023-02-15T01:14:22.756Z,16.35
2023-02-15T01:16:51.994Z,16.50
2023-02-15T01:19:21.992Z,15.85
2023-02-15T01:21:51.235Z,16.15
2023-02-15T01:24:20.863Z,16.45
2023-02-15T01:26:50.114Z,15.45
2023-02-15T01:29:19.742Z,15.30
2023-02-15T01:31:50.523Z,15.82
2023-02-15T01:34:20.384Z,16.45
2023-02-15T01:36:49.827Z,16.40
2023-02-15T01:39:20.357Z,17.63
2023-02-15T01:41:49.767Z,17.60
2023-02-15T01:44:52.019Z,16.25
2023-02-15T01:50:08.629Z,15.68
2023-02-15T01:52:43.120Z,14.15
2023-02-15T01:55:14.245Z,15.88
2023-02-15T01:57:44.893Z,15.48
2023-02-15T02:00:17.959Z,16.17
2023-02-15T02:02:51.651Z,17.00
2023-02-15T02:05:21.432Z,16.38
2023-02-15T02:07:53.796Z,16.50
2023-02-15T02:10:26.548Z,17.13
2023-02-15T02:12:59.130Z,17.42
2023-02-15T02:15:40.537Z,17.38
2023-02-15T02:21:19.891Z,16.20
2023-02-15T02:24:01.156Z,16.67
2023-02-15T02:27:06.730Z,17.80
2023-02-15T02:30:11.310Z,16.55
2023-02-15T02:33:04.447Z,16.65
2023-02-15T02:35:42.605Z,17.27
2023-02-15T02:38:21.974Z,16.80
2023-02-15T02:40:58.683Z,18.20
2023-02-15T02:43:36.144Z,17.40
2023-02-15T02:46:11.808Z,17.88
2023-02-15T02:48:41.899Z,19.08
2023-02-15T02:51:12.566Z,19.10
2023-02-15T02:56:20.651Z,15.95
2023-02-15T02:58:54.277Z,17.45
2023-02-15T03:01:27.546Z,17.27
2023-02-15T03:04:02.312Z,16.77
2023-02-15T03:06:39.591Z,17.30
2023-02-15T03:09:15.609Z,17.67
2023-02-15T03:11:47.141Z,17.00
2023-02-15T03:14:19.407Z,19.92
2023-02-15T03:16:50.591Z,17.10
2023-02-15T03:19:24.416Z,16.75
2023-02-15T03:22:04.832Z,16.58
2023-02-15T03:24:38.346Z,15.35
2023-02-15T03:27:10.259Z,16.60
2023-02-15T03:29:41.201Z,16.70
2023-02-15T03:32:13.995Z,16.88
2023-02-15T03:34:44.538Z,15.15
2023-02-15T03:37:22.705Z,16.77
2023-02-15T03:39:56.802Z,16.80
2023-02-15T03:42:30.867Z,16.45
2023-02-15T03:45:05.055Z,16.75
2023-02-15T03:47:37.447Z,17.77
2023-02-15T03:50:31.393Z,17.98
2023-02-15T03:53:04.122Z,18.95
2023-02-15T03:55:34.175Z,19.67
2023-02-15T03:58:21.137Z,19.77
2023-02-15T04:01:14.280Z,16.55
2023-02-15T04:03:46.635Z,16.20
2023-02-15T04:06:16.485Z,16.23
2023-02-15T04:09:04.803Z,16.05
2023-02-15T04:11:34.436Z,17.83
2023-02-15T04:14:24.270Z,15.23
2023-02-15T04:16:53.413Z,16.17
2023-02-15T04:19:39.853Z,15.30
2023-02-15T04:22:26.745Z,16.10
2023-02-15T04:25:13.116Z,15.05
2023-02-15T04:27:46.433Z,14.38
2023-02-15T04:30:17.524Z,15.38
2023-02-15T04:32:47.929Z,15.98
2023-02-15T04:35:17.863Z,14.85
2023-02-15T04:37:47.924Z,14.68
2023-02-15T04:40:19.847Z,13.15
2023-02-15T04:42:51.441Z,14.13
2023-02-15T04:45:21.113Z,14.40
2023-02-15T04:47:51.217Z,13.48
2023-02-15T04:50:20.853Z,13.77
2023-02-15T04:52:50.588Z,13.60
2023-02-15T04:55:21.311Z,12.35
2023-02-15T05:00:20.603Z,13.32
2023-02-15T05:02:50.246Z,12.18
2023-02-15T05:05:20.313Z,12.98
2023-02-15T05:07:49.970Z,11.95
2023-02-15T05:10:20.900Z,12.75
2023-02-15T05:12:50.610Z,12.40
2023-02-15T05:15:20.023Z,12.70
2023-02-15T05:17:49.857Z,12.43
2023-02-15T05:20:19.850Z,14.73
2023-02-15T05:22:49.612Z,14.63
2023-02-15T05:25:36.178Z,12.18
2023-02-15T05:28:22.536Z,12.23
2023-02-15T05:30:54.215Z,12.73
2023-02-15T05:33:24.039Z,13.52
2023-02-15T05:35:53.605Z,11.50
2023-02-15T05:38:23.401Z,11.23
2023-02-15T05:40:53.682Z,11.50
2023-02-15T05:45:55.615Z,11.17
2023-02-15T05:48:27.566Z,11.80
2023-02-15T05:51:01.291Z,12.13
2023-02-15T05:53:32.442Z,11.95
2023-02-15T05:56:02.252Z,12.10
2023-02-15T05:58:35.300Z,11.35
2023-02-15T06:01:11.551Z,12.73
2023-02-15T06:03:41.541Z,13.52
2023-02-15T06:06:11.086Z,12.73
2023-02-15T06:08:41.365Z,14.45
2023-02-15T06:11:10.674Z,15.48
2023-02-15T06:13:41.796Z,14.82
2023-02-15T06:16:11.196Z,13.48
2023-02-15T06:18:41.619Z,15.60
2023-02-15T06:21:11.180Z,14.15
2023-02-15T06:23:40.970Z,15.70
2023-02-15T06:26:10.363Z,16.10
2023-02-15T06:28:42.811Z,15.52
2023-02-15T06:31:12.401Z,14.95
2023-02-15T06:33:42.355Z,13.55
2023-02-15T06:36:11.804Z,14.23
2023-02-15T06:38:42.019Z,14.27
2023-02-15T06:41:16.269Z,14.45
2023-02-15T06:43:47.340Z,15.32
2023-02-15T06:46:16.729Z,14.30
2023-02-15T06:48:46.409Z,13.38
2023-02-15T06:51:15.802Z,15.35
2023-02-15T06:53:45.496Z,13.82
2023-02-15T06:56:14.962Z,14.93
2023-02-15T06:58:47.133Z,15.55
2023-02-15T07:01:18.004Z,13.90
2023-02-15T07:03:48.235Z,12.73
2023-02-15T07:06:17.691Z,12.50
2023-02-15T07:08:47.315Z,14.05
2023-02-15T07:11:33.880Z,14.30
2023-02-15T07:14:03.548Z,12.98
2023-02-15T07:16:34.383Z,13.45
2023-02-15T07:19:04.529Z,12.75
2023-02-15T07:21:33.846Z,13.63
2023-02-15T07:24:03.885Z,13.60
2023-02-15T07:26:34.390Z,13.95
2023-02-15T07:29:04.195Z,12.90
2023-02-15T07:31:34.991Z,13.60
2023-02-15T07:34:05.183Z,13.02
2023-02-15T07:36:34.464Z,13.10
2023-02-15T07:39:04.326Z,13.70
2023-02-15T07:41:33.632Z,12.65
2023-02-15T07:44:03.302Z,12.75
2023-02-15T07:46:34.118Z,13.45
2023-02-15T07:49:05.068Z,14.82
2023-02-15T07:51:34.538Z,13.93
2023-02-15T07:54:05.017Z,14.50
2023-02-15T07:56:36.357Z,15.73
2023-02-15T07:59:06.977Z,12.70
2023-02-15T08:01:39.377Z,13.68
2023-02-15T08:04:10.699Z,13.95
2023-02-15T08:06:40.868Z,15.23
2023-02-15T08:09:12.089Z,14.98
2023-02-15T08:11:42.761Z,16.50
2023-02-15T08:14:14.849Z,17.10
2023-02-15T08:16:47.207Z,15.15
2023-02-15T08:19:20.027Z,14.02
2023-02-15T08:21:50.782Z,15.18
2023-02-15T08:24:22.788Z,13.43
2023-02-15T08:26:53.145Z,14.68
2023-02-15T08:29:26.265Z,13.40
2023-02-15T08:32:00.071Z,14.40
2023-02-15T08:34:31.137Z,14.02
2023-02-15T08:37:00.694Z,14.85
2023-02-15T08:39:30.764Z,14.25
2023-02-15T08:42:00.728Z,13.07
2023-02-15T08:44:31.051Z,13.80
2023-02-15T08:47:05.167Z,15.43
2023-02-15T08:49:35.724Z,14.88
2023-02-15T08:52:05.034Z,14.07
2023-02-15T08:54:35.047Z,13.98
2023-02-15T08:57:04.473Z,15.07
2023-02-15T08:59:34.261Z,12.93
2023-02-15T09:02:05.581Z,13.40
2023-02-15T09:04:35.244Z,15.45
2023-02-15T09:07:05.726Z,12.85
2023-02-15T09:09:35.353Z,15.38
2023-02-15T09:12:04.847Z,14.32
2023-02-15T09:14:33.983Z,17.08
2023-02-15T09:17:05.342Z,16.02
2023-02-15T09:22:03.944Z,12.75
2023-02-15T09:24:34.854Z,14.00
2023-02-15T09:27:04.706Z,13.07
2023-02-15T09:29:34.114Z,13.18
2023-02-15T09:32:06.658Z,11.15
2023-02-15T09:34:36.275Z,11.35
2023-02-15T09:37:08.149Z,11.80
2023-02-15T09:39:42.573Z,12.25
2023-02-15T09:42:43.784Z,10.82
2023-02-15T09:45:26.507Z,12.07
2023-02-15T09:48:30.929Z,12.55
2023-02-15T09:51:17.548Z,12.48
2023-02-15T09:54:06.999Z,12.20
2023-02-15T09:56:41.939Z,12.63
2023-02-15T09:59:20.824Z,12.55
2023-02-15T10:02:01.847Z,11.18
2023-02-15T10:04:57.539Z,11.88
2023-02-15T10:07:46.938Z,12.38
2023-02-15T10:10:26.795Z,14.73
2023-02-15T10:13:13.896Z,13.45
2023-02-15T10:16:05.177Z,15.80
2023-02-15T10:18:56.597Z,13.85
2023-02-15T10:21:41.610Z,14.13
2023-02-15T10:24:40.470Z,13.98
2023-02-15T10:27:15.343Z,13.75
2023-02-15T10:29:53.797Z,13.82
2023-02-15T10:32:26.212Z,14.73
2023-02-15T10:35:01.842Z,15.60
2023-02-15T10:38:05.039Z,13.48
2023-02-15T10:40:43.284Z,14.75
2023-02-15T10:43:27.374Z,14.98
2023-02-15T10:46:05.222Z,14.05
2023-02-15T10:49:06.086Z,15.48
2023-02-15T10:51:46.297Z,13.80
2023-02-15T10:54:26.385Z,15.43
2023-02-15T10:57:06.180Z,15.20
2023-02-15T11:00:00.850Z,16.00
2023-02-15T11:02:44.205Z,15.55
2023-02-15T11:05:27.734Z,15.10
2023-02-15T11:08:00.716Z,15.93
2023-02-15T11:10:36.687Z,14.88
2023-02-15T11:13:12.781Z,15.25
2023-02-15T11:15:47.027Z,15.75
2023-02-15T11:18:21.830Z,16.83
2023-02-15T11:20:58.350Z,16.48
2023-02-15T11:23:29.100Z,16.77
2023-02-15T11:26:02.170Z,17.10
2023-02-15T11:28:37.143Z,17.60
2023-02-15T11:31:22.290Z,17.20
2023-02-15T11:33:56.490Z,17.33
2023-02-15T11:36:30.403Z,16.25
2023-02-15T11:39:05.119Z,16.83
2023-02-15T11:41:39.848Z,17.13
2023-02-15T11:44:18.065Z,17.17
2023-02-15T11:46:47.884Z,18.15
2023-02-15T11:49:25.662Z,18.33
2023-02-15T11:51:57.007Z,17.38
2023-02-15T11:54:30.527Z,17.35
2023-02-15T11:57:15.935Z,16.83
2023-02-15T11:59:52.402Z,17.83
2023-02-15T12:02:24.600Z,19.23
2023-02-15T12:04:57.104Z,18.13
2023-02-15T12:07:30.158Z,18.08
2023-02-15T12:10:08.384Z,17.42
2023-02-15T12:12:38.515Z,18.75
2023-02-15T12:15:11.078Z,17.42
2023-02-15T12:17:43.242Z,16.02
2023-02-15T12:20:28.004Z,17.52
2023-02-15T12:23:04.707Z,16.70
2023-02-15T12:25:39.337Z,15.43
2023-02-15T12:28:29.317Z,16.75
2023-02-15T12:31:01.399Z,16.40
2023-02-15T12:33:35.570Z,15.20
2023-02-15T12:36:13.888Z,15.82
2023-02-15T12:38:43.989Z,15.82
2023-02-15T12:41:26.790Z,15.00
2023-02-15T12:44:14.268Z,17.13
2023-02-15T12:46:58.140Z,16.08
2023-02-15T12:49:28.606Z,16.00
2023-02-15T12:52:00.484Z,17.27
2023-02-15T12:54:41.457Z,16.38
2023-02-15T12:57:28.130Z,17.85
2023-02-15T12:59:59.561Z,14.80
2023-02-15T13:02:38.035Z,16.40
2023-02-15T13:05:20.041Z,15.63
2023-02-15T13:07:53.731Z,17.33
2023-02-15T13:10:29.647Z,16.83
2023-02-15T13:12:59.623Z,17.73
2023-02-15T13:15:36.318Z,18.77
2023-02-15T13:18:13.664Z,16.27
2023-02-15T13:20:46.390Z,17.42
2023-02-15T13:23:29.694Z,15.98
2023-02-15T13:26:02.218Z,18.38
2023-02-15T13:28:39.537Z,15.40
2023-02-15T13:31:16.484Z,16.67
2023-02-15T13:33:52.018Z,16.10
2023-02-15T13:36:28.410Z,16.55
2023-02-15T13:39:15.926Z,15.60
2023-02-15T13:41:55.879Z,17.35
2023-02-15T13:44:48.341Z,17.42
2023-02-15T13:47:24.720Z,17.73
2023-02-15T13:50:11.462Z,18.58
2023-02-15T13:52:49.041Z,20.67
2023-02-15T13:55:39.166Z,18.90
2023-02-15T13:58:39.892Z,24.63
2023-02-15T14:01:15.164Z,16.60
2023-02-15T14:04:06.492Z,17.30
2023-02-15T14:07:08.105Z,18.17
2023-02-15T14:09:49.533Z,16.80
2023-02-15T14:15:29.610Z,18.55
2023-02-15T14:18:09.717Z,20.67
2023-02-15T14:20:57.902Z,18.63
2023-02-15T14:23:44.483Z,19.73
2023-02-15T14:26:20.112Z,20.13
2023-02-15T14:28:58.416Z,19.05
2023-02-15T14:31:34.483Z,18.35
2023-02-15T14:34:05.272Z,21.20
2023-02-15T14:39:41.134Z,20.77
2023-02-15T14:42:17.512Z,20.00
2023-02-15T14:44:54.147Z,20.83
2023-02-15T14:47:27.629Z,21.17
2023-02-15T14:49:57.024Z,20.17
2023-02-15T14:52:26.796Z,21.05
2023-02-15T14:55:02.496Z,23.10
2023-02-15T14:57:37.262Z,21.25
2023-02-15T15:00:33.435Z,21.13
2023-02-15T15:03:03.707Z,23.08
2023-02-15T15:05:38.035Z,25.30
2023-02-15T15:08:08.691Z,24.25
2023-02-15T15:10:42.875Z,27.85
2023-02-15T15:13:39.182Z,23.52
2023-02-15T15:16:41.518Z,24.50
2023-02-15T15:19:13.250Z,25.92
2023-02-15T15:21:59.227Z,26.67
2023-02-15T15:24:52.238Z,26.77
2023-02-15T15:27:49.974Z,25.95
2023-02-15T15:31:05.050Z,27.35
2023-02-15T15:34:09.989Z,27.25
2023-02-15T15:37:28.028Z,27.17
2023-02-15T15:40:43.248Z,28.92
2023-02-15T15:43:52.222Z,24.73
2023-02-15T15:46:48.675Z,25.45
2023-02-15T15:49:20.776Z,25.75
2023-02-15T15:51:51.069Z,24.70
2023-02-15T15:54:23.523Z,25.30
2023-02-15T15:56:55.709Z,26.42
2023-02-15T15:59:29.056Z,38.30
2023-02-15T16:01:58.530Z,41.85
2023-02-15T16:04:31.121Z,28.42
2023-02-15T16:07:15.960Z,29.83
2023-02-15T16:09:57.228Z,25.80
2023-02-15T16:12:27.600Z,27.35
2023-02-15T16:14:59.596Z,27.30
2023-02-15T16:17:32.969Z,27.50
2023-02-15T16:20:08.488Z,27.45
2023-02-15T16:22:38.104Z,27.92
2023-02-15T16:25:27.755Z,27.38
2023-02-15T16:27:57.175Z,27.63
2023-02-15T16:30:31.169Z,30.50
2023-02-15T16:33:08.910Z,39.65
2023-02-15T16:35:40.945Z,30.80
2023-02-15T16:38:13.435Z,30.63
2023-02-15T16:40:53.544Z,27.08
2023-02-15T16:43:27.138Z,29.42
2023-02-15T16:46:06.316Z,30.02
2023-02-15T16:48:37.318Z,30.23
2023-02-15T16:51:07.766Z,31.17
2023-02-15T16:53:37.443Z,32.40
2023-02-15T16:56:08.477Z,33.63
2023-02-15T16:58:43.918Z,34.10
2023-02-15T17:01:17.649Z,32.55
2023-02-15T17:03:52.354Z,32.63
2023-02-15T17:06:24.519Z,34.33
2023-02-15T17:08:54.091Z,36.15
2023-02-15T17:11:25.376Z,38.00
2023-02-15T17:14:22.193Z,34.85
2023-02-15T17:16:57.664Z,33.83
2023-02-15T17:19:30.699Z,36.38
2023-02-15T17:22:03.100Z,36.65
2023-02-15T17:27:13.721Z,37.22
2023-02-15T17:29:46.909Z,36.42
2023-02-15T17:32:21.744Z,37.33
2023-02-15T17:35:11.480Z,39.40
2023-02-15T17:37:49.030Z,36.13
2023-02-15T17:40:24.562Z,40.47
2023-02-15T17:42:54.795Z,41.58
2023-02-15T17:45:27.547Z,43.10
2023-02-15T17:48:00.168Z,39.92
2023-02-15T17:50:30.284Z,42.55
2023-02-15T17:53:01.730Z,41.08
2023-02-15T17:55:39.341Z,41.25
2023-02-15T17:58:12.036Z,42.72
2023-02-15T18:01:02.956Z,45.42
2023-02-15T18:04:00.608Z,45.95
2023-02-15T18:06:47.540Z,42.22
2023-02-15T18:09:35.671Z,43.95
2023-02-15T18:12:15.290Z,39.88
2023-02-15T18:14:44.956Z,41.95
2023-02-15T18:17:16.040Z,39.38
2023-02-15T18:19:48.232Z,38.83
2023-02-15T18:22:19.294Z,37.95
2023-02-15T18:24:49.855Z,37.08
2023-02-15T18:27:19.157Z,36.73
2023-02-15T18:29:49.735Z,37.50
2023-02-15T18:32:21.265Z,37.03
2023-02-15T18:34:53.454Z,38.63
2023-02-15T18:37:24.347Z,38.58
2023-02-15T18:39:55.490Z,35.72
2023-02-15T18:42:28.020Z,35.80
2023-02-15T18:44:59.725Z,36.03
2023-02-15T18:47:29.174Z,35.70
2023-02-15T18:50:00.716Z,34.40
2023-02-15T18:52:35.335Z,34.53
2023-02-15T18:55:09.240Z,32.42
2023-02-15T18:57:38.699Z,32.75
2023-02-15T19:00:16.511Z,34.10
2023-02-15T19:02:45.883Z,36.10
2023-02-15T19:05:19.169Z,35.30
2023-02-15T19:07:49.751Z,34.42
2023-02-15T19:10:21.654Z,34.67
2023-02-15T19:12:51.582Z,33.72
2023-02-15T19:15:23.634Z,33.28
2023-02-15T19:17:53.636Z,34.05
2023-02-15T19:20:26.957Z,31.95
2023-02-15T19:22:58.560Z,34.83
2023-02-15T19:25:30.951Z,38.63
2023-02-15T19:28:00.889Z,34.65
2023-02-15T19:30:33.230Z,35.47
2023-02-15T19:33:05.312Z,35.85
2023-02-15T19:35:37.600Z,38.85
2023-02-15T19:38:10.011Z,35.03
2023-02-15T19:40:39.962Z,35.97
2023-02-15T19:43:16.866Z,35.30
2023-02-15T19:45:48.309Z,37.95
2023-02-15T19:50:50.803Z,35.30
2023-02-15T19:53:25.203Z,35.75
2023-02-15T19:55:55.635Z,34.90
2023-02-15T19:58:25.216Z,33.50
2023-02-15T20:00:54.884Z,38.80
2023-02-15T20:03:24.355Z,37.47
2023-02-15T20:05:55.886Z,36.38
2023-02-15T20:08:25.757Z,35.85
2023-02-15T20:10:55.550Z,35.90
2023-02-15T20:13:25.002Z,37.40
2023-02-15T20:15:55.071Z,37.38
2023-02-15T20:18:24.835Z,37.33
2023-02-15T20:20:59.531Z,40.00
2023-02-15T20:23:32.215Z,37.78
2023-02-15T20:26:03.592Z,36.67
2023-02-15T20:31:04.433Z,36.63
2023-02-15T20:36:05.453Z,34.58
2023-02-15T20:38:35.555Z,38.95
2023-02-15T20:41:22.691Z,36.67
2023-02-15T20:43:52.905Z,37.70
2023-02-15T20:46:22.245Z,37.92
2023-02-15T20:48:52.028Z,37.75
2023-02-15T20:51:24.001Z,37.63
2023-02-15T20:53:54.401Z,38.05
2023-02-15T20:56:25.255Z,38.13
2023-02-15T20:58:55.445Z,41.17
2023-02-15T21:01:25.176Z,40.08
2023-02-15T21:03:55.570Z,41.93
2023-02-15T21:06:26.512Z,43.07
2023-02-15T21:08:56.987Z,40.33
2023-02-15T21:11:29.464Z,39.95
2023-02-15T21:13:59.548Z,41.65
2023-02-15T21:16:28.894Z,42.35
2023-02-15T21:18:58.567Z,41.45
2023-02-15T21:21:29.504Z,44.03
2023-02-15T21:23:59.169Z,42.25
2023-02-15T21:26:29.916Z,45.13
2023-02-15T21:28:59.566Z,42.88
2023-02-15T21:31:29.029Z,39.70
2023-02-15T21:33:58.674Z,43.22
2023-02-15T21:36:30.202Z,46.78
2023-02-15T21:38:59.610Z,42.05
2023-02-15T21:41:46.934Z,43.45
2023-02-15T21:44:37.758Z,42.95
2023-02-15T21:50:23.834Z,41.30
2023-02-15T21:52:55.079Z,41.00
2023-02-15T21:55:24.616Z,43.72
2023-02-15T21:57:54.748Z,44.88
2023-02-15T22:00:26.201Z,43.75
2023-02-15T22:02:58.390Z,41.67
2023-02-15T22:05:30.800Z,43.55
2023-02-15T22:08:02.405Z,45.22
2023-02-15T22:10:33.133Z,44.22
2023-02-15T22:13:05.706Z,43.38
2023-02-15T22:15:38.500Z,42.03
2023-02-15T22:18:08.208Z,44.30
2023-02-15T22:20:37.435Z,43.38
2023-02-15T22:23:09.931Z,43.03
2023-02-15T22:25:39.504Z,43.03
2023-02-15T22:28:16.937Z,44.40
2023-02-15T22:30:47.096Z,41.97
2023-02-15T22:33:25.834Z,42.90
2023-02-15T22:35:55.323Z,40.92
2023-02-15T22:38:26.843Z,44.90
2023-02-15T22:43:36.835Z,47.72
2023-02-15T22:46:08.531Z,43.92
2023-02-15T22:48:38.206Z,43.22
2023-02-15T22:51:07.676Z,43.28
2023-02-15T22:53:39.208Z,45.13
2023-02-15T22:56:10.737Z,43.75
2023-02-15T22:58:40.489Z,43.95
2023-02-15T23:01:19.820Z,41.95
2023-02-15T23:03:49.992Z,45.70
2023-02-15T23:06:19.379Z,45.35
2023-02-15T23:08:50.816Z,44.67
2023-02-15T23:11:20.677Z,41.10
2023-02-15T23:13:51.266Z,42.63
2023-02-15T23:16:21.017Z,42.90
2023-02-15T23:18:51.100Z,45.13
2023-02-15T23:21:22.901Z,45.63
2023-02-15T23:23:56.439Z,44.42
2023-02-15T23:26:29.022Z,46.00
2023-02-15T23:29:00.950Z,42.70
2023-02-15T23:31:33.189Z,44.25
2023-02-15T23:34:08.748Z,41.95
2023-02-15T23:36:40.114Z,44.72
2023-02-15T23:39:34.182Z,42.33
2023-02-15T23:42:05.907Z,42.67
2023-02-15T23:44:36.128Z,44.20
2023-02-15T23:47:06.026Z,42.97
2023-02-15T23:49:35.985Z,42.80
2023-02-15T23:52:08.149Z,45.63
2023-02-15T23:54:39.302Z,44.05
2023-02-15T23:57:12.218Z,43.28
2023-02-15T23:59:45.475Z,42.47
